Time;durP1;ratioP1;P1;durP2;ratioP2;P2;SDS_P1;SDS_P2;PMS_P1;PMS_P2;Temp;Humidity;BMP_temperature;BMP_pressure;BME280_temperature;BME280_humidity;BME280_pressure;Samples;Min_cycle;Max_cycle;Signal;HPM_P1;HPM_P2
2022/12/13 00:01:19;;;;;;;6.82;6.13;;;14.20;47.50;;;;;;4997158;28;20216;-65
2022/12/13 00:03:46;;;;;;;7.20;6.50;;;14.10;47.50;;;;;;4996778;28;20679;-65
2022/12/13 00:06:13;;;;;;;7.18;6.47;;;14.10;47.80;;;;;;4996610;28;20606;-65
2022/12/13 00:08:41;;;;;;;7.75;6.10;;;14.10;47.70;;;;;;5001062;28;20212;-65
2022/12/13 00:11:10;;;;;;;7.55;6.60;;;14.10;47.50;;;;;;5001710;28;20296;-65
2022/12/13 00:13:37;;;;;;;7.38;6.47;;;14.10;47.80;;;;;;5038760;28;20184;-65
2022/12/13 00:16:06;;;;;;;8.18;6.72;;;14.00;47.60;;;;;;5001745;28;20643;-65
2022/12/13 00:18:35;;;;;;;8.02;6.10;;;14.00;47.60;;;;;;5000677;28;20248;-65
2022/12/13 00:21:04;;;;;;;7.45;6.68;;;13.90;47.60;;;;;;5000953;28;20197;-65
2022/12/13 00:23:32;;;;;;;7.10;6.38;;;13.90;47.50;;;;;;5017836;28;20211;-65
2022/12/13 00:26:02;;;;;;;7.57;6.68;;;13.90;47.50;;;;;;5000268;28;20666;-65
2022/12/13 00:28:30;;;;;;;7.10;6.40;;;13.90;47.60;;;;;;5000114;28;20223;-65
2022/12/13 00:30:57;;;;;;;8.30;7.50;;;13.90;47.70;;;;;;4999805;28;20652;-65
2022/12/13 00:33:25;;;;;;;7.18;6.47;;;13.80;47.40;;;;;;5000142;28;20201;-65
2022/12/13 00:35:53;;;;;;;8.30;7.22;;;13.80;47.60;;;;;;4999862;28;20291;-65
2022/12/13 00:38:21;;;;;;;7.63;6.78;;;13.80;47.70;;;;;;4999560;28;20683;-65
2022/12/13 00:40:48;;;;;;;7.68;6.80;;;13.80;47.50;;;;;;4983537;28;20228;-65
2022/12/13 00:43:15;;;;;;;8.15;6.93;;;13.80;47.70;;;;;;4999695;28;20629;-65
2022/12/13 00:45:42;;;;;;;7.65;6.80;;;13.70;47.50;;;;;;5017526;28;20251;-65
2022/12/13 00:48:09;;;;;;;7.72;6.95;;;13.70;47.60;;;;;;4999893;28;20581;-65
2022/12/13 00:50:37;;;;;;;8.43;6.97;;;13.70;47.40;;;;;;4999343;28;20205;-65
2022/12/13 00:53:05;;;;;;;7.25;6.55;;;13.70;47.60;;;;;;4999488;28;20200;-65
2022/12/13 00:55:33;;;;;;;7.70;6.88;;;13.60;47.60;;;;;;4999836;28;20201;-65
2022/12/13 00:58:00;;;;;;;8.32;7.50;;;13.60;47.60;;;;;;4999068;28;20256;-65
2022/12/13 01:00:27;;;;;;;8.20;7.40;;;13.60;47.40;;;;;;4999282;28;20625;-65
2022/12/13 01:02:54;;;;;;;8.35;7.13;;;13.60;47.50;;;;;;4999173;28;20266;-65
2022/12/13 01:05:22;;;;;;;8.20;7.40;;;13.50;47.60;;;;;;4999293;28;20208;-65
2022/12/13 01:07:49;;;;;;;6.88;6.18;;;13.60;47.70;;;;;;4999318;28;20616;-65
2022/12/13 01:10:17;;;;;;;7.13;6.43;;;13.50;47.50;;;;;;4999281;28;20256;-65
2022/12/13 01:12:46;;;;;;;6.65;5.97;;;13.50;47.60;;;;;;4999275;28;20201;-65
2022/12/13 01:15:13;;;;;;;7.32;6.57;;;13.50;47.60;;;;;;4983048;28;20207;-65
2022/12/13 01:17:40;;;;;;;7.47;6.68;;;13.50;47.70;;;;;;4998921;28;20240;-65
2022/12/13 01:20:09;;;;;;;7.47;6.78;;;13.40;47.60;;;;;;4999089;28;20201;-64
2022/12/13 01:22:36;;;;;;;8.18;7.22;;;13.40;47.70;;;;;;4998929;28;20296;-64
2022/12/13 01:25:04;;;;;;;9.10;7.18;;;13.40;47.50;;;;;;4998596;28;20263;-65
2022/12/13 01:27:51;;;;;;;8.05;7.05;;;13.40;47.40;;;;;;5016499;28;20263;-65
2022/12/13 01:30:19;;;;;;;7.55;6.75;;;13.40;47.50;;;;;;4998557;28;20197;-65
2022/12/13 01:32:45;;;;;;;7.35;6.45;;;13.30;47.50;;;;;;4998725;28;20585;-64
2022/12/13 01:35:13;;;;;;;7.60;6.75;;;13.30;47.80;;;;;;5016348;28;20287;-65
2022/12/13 01:37:40;;;;;;;8.25;6.70;;;13.30;47.50;;;;;;5014826;28;20315;-65
2022/12/13 01:40:08;;;;;;;8.13;7.03;;;13.30;47.70;;;;;;4998223;28;20608;-65
2022/12/13 01:42:37;;;;;;;7.47;6.72;;;13.20;47.50;;;;;;5016652;28;20189;-65
2022/12/13 01:45:09;;;;;;;6.90;6.20;;;13.20;47.60;;;;;;4998688;28;20543;-65
2022/12/13 01:47:39;;;;;;;7.85;7.15;;;13.30;47.50;;;;;;5016013;28;20676;-65
2022/12/13 01:50:08;;;;;;;7.72;6.90;;;13.20;47.50;;;;;;5014845;28;20598;-65
2022/12/13 01:52:35;;;;;;;7.68;6.88;;;13.20;47.60;;;;;;4997977;28;20296;-65
2022/12/13 01:55:04;;;;;;;8.40;6.50;;;13.20;47.60;;;;;;4998247;28;20208;-65
2022/12/13 01:57:31;;;;;;;7.55;6.80;;;13.20;47.60;;;;;;4998293;28;20252;-65
2022/12/13 01:59:57;;;;;;;7.07;6.43;;;13.20;47.50;;;;;;4998033;28;20201;-65
2022/12/13 02:02:26;;;;;;;8.38;7.50;;;13.20;47.50;;;;;;4997933;28;20198;-65
2022/12/13 02:04:55;;;;;;;7.90;7.10;;;13.10;47.60;;;;;;4998169;28;20208;-65
2022/12/13 02:07:25;;;;;;;9.07;7.32;;;13.10;47.50;;;;;;4998163;28;20220;-65
2022/12/13 02:09:53;;;;;;;7.80;7.00;;;13.10;47.50;;;;;;5015699;28;20276;-65
2022/12/13 02:12:21;;;;;;;7.35;6.65;;;13.10;47.60;;;;;;4998170;28;20211;-65
2022/12/13 02:14:47;;;;;;;7.82;7.03;;;13.10;47.70;;;;;;4998074;28;20228;-65
2022/12/13 02:17:19;;;;;;;7.43;6.72;;;13.10;47.40;;;;;;4997775;28;20315;-65
2022/12/13 02:20:18;;;;;;;7.93;6.88;;;13.10;47.30;;;;;;4997972;28;20219;-66
2022/12/13 02:22:55;;;;;;;8.27;7.50;;;13.00;47.40;;;;;;4998480;28;20197;-65
2022/12/13 02:25:39;;;;;;;6.90;6.30;;;13.00;47.60;;;;;;4998231;28;20201;-65
2022/12/13 02:28:16;;;;;;;8.25;7.45;;;13.00;47.50;;;;;;4997985;28;20240;-65
2022/12/13 02:30:46;;;;;;;7.03;6.32;;;13.00;47.50;;;;;;4997258;28;20192;-65
2022/12/13 02:33:24;;;;;;;7.78;6.97;;;13.00;47.60;;;;;;4997846;28;20204;-64
2022/12/13 02:35:55;;;;;;;8.00;7.20;;;12.90;47.20;;;;;;4997900;28;20682;-65
2022/12/13 02:38:25;;;;;;;7.13;6.43;;;12.90;47.30;;;;;;4998780;28;20233;-65
2022/12/13 02:40:55;;;;;;;7.72;7.03;;;12.90;47.40;;;;;;4998479;28;20197;-66
2022/12/13 02:43:23;;;;;;;7.25;6.53;;;12.90;47.30;;;;;;4997977;28;20208;-65
2022/12/13 02:45:53;;;;;;;6.50;5.88;;;12.90;47.30;;;;;;5015526;28;20561;-65
2022/12/13 02:48:23;;;;;;;8.50;7.60;;;12.90;47.50;;;;;;4999094;28;20220;-65
2022/12/13 02:50:50;;;;;;;7.65;6.80;;;12.90;47.50;;;;;;5000263;28;20193;-65
2022/12/13 02:53:18;;;;;;;7.57;6.80;;;12.90;47.50;;;;;;4998051;28;20203;-65
2022/12/13 02:55:45;;;;;;;7.05;6.32;;;12.80;47.50;;;;;;4998669;28;20208;-65
2022/12/13 02:58:12;;;;;;;8.52;7.47;;;12.80;47.20;;;;;;5016314;28;20216;-65
2022/12/13 03:00:46;;;;;;;7.13;6.43;;;12.80;47.10;;;;;;4997761;28;20209;-65
2022/12/13 03:03:20;;;;;;;8.50;7.43;;;12.80;47.40;;;;;;4997589;28;20197;-65
2022/12/13 03:08:43;;;;;;;7.43;6.72;;;12.80;48.00;;;;;;4997178;28;20205;-65
2022/12/13 03:11:11;;;;;;;8.43;7.25;;;12.80;47.50;;;;;;4997344;28;20199;-65
2022/12/13 03:13:43;;;;;;;7.75;6.97;;;12.80;47.30;;;;;;4997853;28;20228;-65
2022/12/13 03:16:27;;;;;;;7.50;6.68;;;12.70;47.30;;;;;;4997532;28;20189;-65
2022/12/13 03:18:58;;;;;;;7.25;6.55;;;12.70;47.10;;;;;;4998808;28;20216;-65
2022/12/13 03:21:25;;;;;;;7.90;7.10;;;12.70;47.30;;;;;;4997696;28;20200;-65
2022/12/13 03:23:52;;;;;;;8.05;7.18;;;12.70;47.20;;;;;;4997462;28;20543;-65
2022/12/13 03:26:21;;;;;;;8.02;7.22;;;12.70;47.10;;;;;;4997336;28;20562;-65
2022/12/13 03:28:50;;;;;;;8.30;7.05;;;12.70;47.10;;;;;;4997696;28;20302;-65
2022/12/13 03:31:17;;;;;;;8.07;7.28;;;12.70;47.20;;;;;;5015406;28;20189;-65
2022/12/13 03:33:43;;;;;;;7.75;6.78;;;12.70;47.30;;;;;;4998088;28;20207;-65
2022/12/13 03:36:12;;;;;;;8.32;7.53;;;12.70;47.40;;;;;;4999790;28;20259;-65
2022/12/13 03:38:39;;;;;;;7.75;6.95;;;12.60;47.10;;;;;;5017797;28;20224;-65
2022/12/13 03:41:09;;;;;;;7.97;7.18;;;12.60;47.30;;;;;;5017917;28;20189;-65
2022/12/13 03:43:36;;;;;;;9.25;6.90;;;12.60;47.30;;;;;;5001509;28;20204;-65
2022/12/13 03:46:03;;;;;;;6.97;6.25;;;12.60;47.00;;;;;;4996687;28;20205;-64
2022/12/13 03:48:30;;;;;;;8.32;7.53;;;12.60;47.30;;;;;;4997030;28;20223;-64
2022/12/13 03:50:57;;;;;;;7.65;6.25;;;12.60;47.30;;;;;;4996529;28;20197;-64
2022/12/13 03:53:26;;;;;;;7.30;6.60;;;12.60;47.30;;;;;;4996401;28;20292;-64
2022/12/13 03:55:53;;;;;;;7.63;6.82;;;12.60;47.30;;;;;;4996432;28;20683;-65
2022/12/13 03:58:19;;;;;;;7.45;6.78;;;12.60;47.10;;;;;;4996914;28;20220;-65
2022/12/13 04:00:47;;;;;;;6.90;6.20;;;12.60;47.20;;;;;;4980547;28;20208;-65
2022/12/13 04:03:14;;;;;;;8.00;7.20;;;12.60;47.20;;;;;;5013822;28;20655;-65
2022/12/13 04:05:41;;;;;;;6.47;5.88;;;12.50;47.20;;;;;;4996210;28;20197;-65
2022/12/13 04:08:09;;;;;;;7.82;6.75;;;12.60;47.40;;;;;;4996271;28;20255;-65
2022/12/13 04:10:38;;;;;;;7.05;6.35;;;12.50;47.10;;;;;;4996185;28;20341;-65
2022/12/13 04:15:50;;;;;;;6.80;6.15;;;12.60;47.10;;;;;;4982358;28;20549;-65
2022/12/13 04:18:17;;;;;;;8.50;6.97;;;12.60;47.30;;;;;;4995914;28;20220;-65
2022/12/13 04:20:44;;;;;;;6.90;6.30;;;12.60;47.20;;;;;;5013654;28;20659;-65
2022/12/13 04:23:12;;;;;;;7.95;7.15;;;12.60;47.20;;;;;;4996383;28;20679;-65
2022/12/13 04:25:40;;;;;;;8.13;6.65;;;12.50;47.00;;;;;;4996164;28;20568;-65
2022/12/13 04:28:09;;;;;;;7.18;6.28;;;12.60;46.70;;;;;;4996139;28;20213;-65
2022/12/13 04:30:37;;;;;;;6.70;5.55;;;12.60;46.90;;;;;;4995961;28;20220;-65
2022/12/13 04:33:05;;;;;;;8.55;6.50;;;12.60;47.10;;;;;;4996074;28;20565;-65
2022/12/13 04:35:32;;;;;;;6.88;6.18;;;12.70;47.00;;;;;;4996023;28;20243;-65
2022/12/13 04:37:59;;;;;;;7.15;6.32;;;12.70;46.70;;;;;;4995839;28;20247;-65
2022/12/13 04:40:26;;;;;;;8.25;6.55;;;12.70;46.80;;;;;;5014018;28;20552;-65
2022/12/13 04:42:54;;;;;;;6.93;6.20;;;12.70;46.80;;;;;;4995731;28;20205;-65
2022/12/13 04:45:22;;;;;;;6.78;6.00;;;12.70;47.10;;;;;;5013603;28;20671;-65
2022/12/13 04:47:49;;;;;;;7.30;6.22;;;12.80;46.80;;;;;;4998353;28;20288;-65
2022/12/13 04:50:16;;;;;;;7.22;6.25;;;12.80;46.70;;;;;;4995912;28;20201;-65
2022/12/13 04:52:44;;;;;;;6.65;5.75;;;12.80;46.60;;;;;;4996792;28;20196;-65
2022/12/13 04:55:11;;;;;;;6.25;5.47;;;12.80;46.60;;;;;;5017197;28;20188;-65
2022/12/13 04:57:38;;;;;;;6.18;5.57;;;12.80;46.60;;;;;;4999443;28;20216;-65
2022/12/13 05:00:09;;;;;;;6.97;5.80;;;12.80;46.60;;;;;;4999581;28;20212;-65
2022/12/13 05:02:36;;;;;;;5.65;5.05;;;12.90;46.40;;;;;;4999451;28;20197;-65
2022/12/13 05:05:03;;;;;;;5.82;5.22;;;12.80;46.40;;;;;;4999545;28;20236;-65
2022/12/13 05:07:31;;;;;;;6.40;5.72;;;12.90;46.50;;;;;;5017082;28;20242;-65
2022/12/13 05:09:58;;;;;;;6.45;5.85;;;12.90;46.40;;;;;;4999961;28;20201;-65
2022/12/13 05:12:25;;;;;;;5.72;5.20;;;12.90;46.10;;;;;;5017289;28;20189;-65
2022/12/13 05:14:52;;;;;;;6.25;4.97;;;12.90;46.10;;;;;;5000203;28;20644;-65
2022/12/13 05:17:21;;;;;;;6.75;6.05;;;13.00;46.20;;;;;;4999779;28;20203;-65
2022/12/13 05:19:48;;;;;;;6.72;6.13;;;13.00;46.20;;;;;;5000397;28;20217;-65
2022/12/13 05:22:16;;;;;;;5.53;4.97;;;13.00;46.00;;;;;;4999664;28;20200;-65
2022/12/13 05:24:43;;;;;;;6.35;5.75;;;13.00;45.90;;;;;;4999771;28;20287;-65
2022/12/13 05:27:11;;;;;;;6.20;5.60;;;13.00;45.80;;;;;;5016976;28;20184;-66
2022/12/13 05:29:38;;;;;;;7.20;6.10;;;13.10;45.60;;;;;;5014701;28;20220;-65
2022/12/13 05:32:06;;;;;;;7.25;5.97;;;13.10;45.60;;;;;;4999748;28;20193;-65
2022/12/13 05:34:34;;;;;;;6.03;5.38;;;13.10;45.70;;;;;;4999512;28;20212;-65
2022/12/13 05:37:02;;;;;;;6.38;5.78;;;13.10;45.50;;;;;;4998967;28;20192;-64
2022/12/13 05:39:29;;;;;;;7.45;5.90;;;13.10;45.40;;;;;;4998936;28;20307;-64
2022/12/13 05:41:57;;;;;;;5.80;5.20;;;13.20;45.60;;;;;;4999285;28;20232;-64
2022/12/13 05:44:24;;;;;;;6.80;6.13;;;13.20;45.60;;;;;;4999264;28;20624;-64
2022/12/13 05:46:51;;;;;;;6.82;6.03;;;13.20;45.60;;;;;;4998642;28;20300;-65
2022/12/13 05:49:19;;;;;;;6.00;5.40;;;13.20;45.60;;;;;;4998452;28;20217;-64
2022/12/13 05:51:48;;;;;;;6.63;5.53;;;13.20;45.80;;;;;;4998549;28;20633;-64
2022/12/13 05:54:15;;;;;;;6.47;5.88;;;13.30;45.80;;;;;;5016226;28;20200;-66
2022/12/13 05:56:42;;;;;;;6.90;6.18;;;13.30;45.60;;;;;;4998958;28;20196;-66
2022/12/13 05:59:09;;;;;;;6.90;5.93;;;13.30;45.40;;;;;;5015193;28;20224;-66
2022/12/13 06:01:36;;;;;;;5.30;4.80;;;13.30;45.60;;;;;;4998307;28;20262;-66
2022/12/13 06:04:04;;;;;;;5.85;5.28;;;13.30;45.70;;;;;;4997606;28;20299;-66
2022/12/13 06:06:31;;;;;;;6.03;5.15;;;13.30;45.50;;;;;;4998501;28;20651;-66
2022/12/13 06:09:00;;;;;;;6.07;5.45;;;13.30;45.20;;;;;;4998022;28;20216;-66
2022/12/13 06:11:27;;;;;;;5.50;5.00;;;13.30;45.00;;;;;;4998003;28;20201;-65
2022/12/13 06:13:54;;;;;;;6.82;6.13;;;13.40;45.90;;;;;;5015897;28;20204;-65
2022/12/13 06:16:21;;;;;;;6.65;5.32;;;13.40;45.30;;;;;;5015717;28;20275;-65
2022/12/13 06:18:48;;;;;;;6.80;6.10;;;13.40;45.50;;;;;;4997566;28;20680;-66
2022/12/13 06:21:15;;;;;;;6.97;5.65;;;13.50;45.10;;;;;;5015420;28;20195;-66
2022/12/13 06:23:42;;;;;;;7.30;5.32;;;13.50;45.10;;;;;;5015546;28;20244;-66
2022/12/13 06:26:11;;;;;;;5.80;5.22;;;13.50;46.10;;;;;;5015455;28;20609;-66
2022/12/13 06:28:39;;;;;;;7.00;5.57;;;13.50;45.70;;;;;;4997636;28;20691;-66
2022/12/13 06:31:06;;;;;;;6.63;5.88;;;13.50;46.00;;;;;;4997631;28;20200;-66
2022/12/13 06:33:37;;;;;;;6.10;5.00;;;13.50;46.00;;;;;;4997925;28;20240;-66
2022/12/13 06:36:05;;;;;;;7.30;5.93;;;13.60;46.30;;;;;;4997617;28;20648;-66
2022/12/13 06:38:32;;;;;;;7.35;6.63;;;13.60;46.10;;;;;;4997922;28;20221;-66
2022/12/13 06:41:11;;;;;;;6.00;5.43;;;13.60;45.90;;;;;;4998047;28;20598;-66
2022/12/13 06:43:41;;;;;;;7.57;6.20;;;13.60;46.40;;;;;;4997223;28;20349;-66
2022/12/13 06:46:08;;;;;;;6.80;6.10;;;13.60;46.50;;;;;;4997267;28;20599;-66
2022/12/13 06:48:35;;;;;;;6.18;5.57;;;13.60;47.00;;;;;;4997312;28;20213;-66
2022/12/13 06:51:02;;;;;;;5.80;5.07;;;13.60;46.60;;;;;;4997385;28;20192;-66
2022/12/13 06:53:30;;;;;;;5.60;5.10;;;13.60;46.60;;;;;;4997061;28;20675;-66
2022/12/13 06:55:57;;;;;;;7.45;5.82;;;13.60;46.60;;;;;;4997186;28;20204;-66
2022/12/13 06:58:25;;;;;;;6.63;5.45;;;13.60;46.00;;;;;;4997075;28;20299;-66
2022/12/13 07:01:01;;;;;;;6.90;6.20;;;13.60;46.00;;;;;;4997423;28;20212;-66
2022/12/13 07:03:28;;;;;;;5.30;4.80;;;13.60;45.90;;;;;;4997034;28;20283;-66
2022/12/13 07:05:55;;;;;;;6.18;5.57;;;13.70;46.10;;;;;;4997252;28;20236;-66
2022/12/13 07:08:22;;;;;;;6.72;5.70;;;13.70;46.10;;;;;;4981017;28;20636;-66
2022/12/13 07:10:49;;;;;;;5.72;5.15;;;13.70;45.80;;;;;;4997219;28;20266;-66
2022/12/13 07:13:16;;;;;;;7.10;6.32;;;13.60;45.50;;;;;;4996709;28;20250;-66
2022/12/13 07:15:45;;;;;;;5.78;5.28;;;13.70;45.70;;;;;;5014648;28;20589;-66
2022/12/13 07:18:12;;;;;;;5.65;5.10;;;13.70;45.60;;;;;;4996823;28;20218;-65
2022/12/13 07:20:40;;;;;;;6.10;5.18;;;13.70;45.50;;;;;;4996935;28;20585;-65
2022/12/13 07:23:07;;;;;;;6.70;5.97;;;13.70;45.50;;;;;;5013112;28;20200;-65
2022/12/13 07:25:34;;;;;;;5.47;4.97;;;13.70;45.60;;;;;;4996790;28;20592;-65
2022/12/13 07:28:02;;;;;;;6.22;5.35;;;13.70;45.70;;;;;;4996651;28;20225;-65
2022/12/13 07:30:29;;;;;;;5.93;5.32;;;13.70;45.20;;;;;;4996650;28;20192;-65
2022/12/13 07:32:57;;;;;;;6.43;5.68;;;13.70;45.20;;;;;;4996730;28;20528;-65
2022/12/13 07:35:24;;;;;;;6.70;4.95;;;13.70;45.10;;;;;;4996633;28;20212;-65
2022/12/13 07:37:51;;;;;;;7.30;6.50;;;13.70;45.20;;;;;;4996638;28;20655;-65
2022/12/13 07:40:19;;;;;;;6.35;5.70;;;13.80;44.30;;;;;;4996400;28;20255;-65
2022/12/13 07:42:49;;;;;;;6.05;5.00;;;13.90;43.80;;;;;;4996675;28;20200;-65
2022/12/13 07:45:18;;;;;;;6.50;5.30;;;13.90;44.00;;;;;;4996653;28;20292;-64
2022/12/13 07:47:45;;;;;;;7.40;5.70;;;13.90;43.20;;;;;;4996736;28;20224;-64
2022/12/13 07:50:14;;;;;;;6.10;5.50;;;13.90;43.00;;;;;;5014686;28;20235;-64
2022/12/13 07:52:41;;;;;;;5.53;4.90;;;14.00;42.90;;;;;;5014135;28;20192;-64
2022/12/13 07:55:09;;;;;;;5.55;5.03;;;14.00;42.50;;;;;;4996714;28;20616;-64
2022/12/13 07:57:36;;;;;;;4.63;4.22;;;14.00;42.50;;;;;;4996832;28;20226;-64
2022/12/13 08:00:03;;;;;;;6.22;5.35;;;14.00;42.50;;;;;;5014374;28;20282;-64
2022/12/13 08:02:40;;;;;;;6.25;5.65;;;14.00;42.40;;;;;;5022323;28;20176;-64
2022/12/13 08:05:08;;;;;;;6.53;5.88;;;14.10;42.50;;;;;;5010061;28;20197;-64
2022/12/13 08:07:36;;;;;;;7.00;4.68;;;14.10;42.00;;;;;;5007490;28;20248;-65
2022/12/13 08:10:05;;;;;;;6.32;5.68;;;14.10;42.20;;;;;;4996937;28;20232;-65
2022/12/13 08:12:32;;;;;;;6.07;5.43;;;14.10;42.10;;;;;;4996895;28;20731;-66
2022/12/13 08:14:58;;;;;;;8.48;5.90;;;14.10;41.90;;;;;;5015508;28;20192;-65
2022/12/13 08:17:27;;;;;;;5.82;5.22;;;14.00;42.20;;;;;;4997297;28;20741;-65
2022/12/13 08:19:54;;;;;;;6.43;5.40;;;14.00;42.60;;;;;;4998009;28;20267;-65
2022/12/13 08:22:21;;;;;;;6.75;5.43;;;14.00;42.70;;;;;;4997222;28;20264;-68
2022/12/13 08:24:50;;;;;;;6.15;5.28;;;13.90;43.30;;;;;;4997737;28;20205;-65
2022/12/13 08:27:17;;;;;;;6.03;5.43;;;13.90;43.40;;;;;;4996845;28;20663;-65
2022/12/13 08:29:45;;;;;;;5.18;4.50;;;13.90;43.60;;;;;;5000853;28;20197;-65
2022/12/13 08:32:13;;;;;;;5.30;4.80;;;14.00;43.70;;;;;;5001388;28;20561;-65
2022/12/13 08:34:41;;;;;;;6.40;5.43;;;14.00;43.70;;;;;;5001003;28;20232;-65
2022/12/13 08:37:07;;;;;;;4.95;4.50;;;14.00;43.80;;;;;;5000818;28;20200;-65
2022/12/13 08:39:35;;;;;;;6.00;5.40;;;14.00;44.20;;;;;;4999851;28;20620;-65
2022/12/13 08:42:05;;;;;;;5.00;4.40;;;14.00;43.80;;;;;;4999472;28;20201;-65
2022/12/13 08:44:32;;;;;;;6.68;4.93;;;14.10;43.80;;;;;;4999452;28;20566;-65
2022/12/13 08:46:59;;;;;;;5.60;4.80;;;14.10;43.60;;;;;;5017217;28;20243;-65
2022/12/13 08:49:26;;;;;;;5.72;4.70;;;14.20;43.20;;;;;;4999448;28;20217;-65
2022/12/13 08:51:54;;;;;;;4.88;4.40;;;14.20;43.70;;;;;;4999444;28;20204;-64
2022/12/13 08:54:20;;;;;;;5.88;5.28;;;14.20;43.90;;;;;;4999805;28;20228;-64
2022/12/13 08:56:48;;;;;;;5.57;4.97;;;14.20;43.30;;;;;;4999483;28;20289;-64
2022/12/13 08:59:17;;;;;;;5.65;5.05;;;14.20;44.00;;;;;;4999457;28;20279;-65
2022/12/13 09:01:45;;;;;;;5.30;4.80;;;14.20;43.70;;;;;;5017103;28;20271;-65
2022/12/13 09:04:12;;;;;;;5.90;5.30;;;14.20;43.80;;;;;;4999664;28;20621;-65
2022/12/13 09:06:41;;;;;;;4.80;4.30;;;14.20;43.60;;;;;;5017191;28;20602;-65
2022/12/13 09:09:08;;;;;;;5.45;4.95;;;14.30;44.30;;;;;;4999677;28;20221;-65
2022/12/13 09:11:35;;;;;;;5.70;4.68;;;14.30;43.80;;;;;;4999155;28;20254;-65
2022/12/13 09:14:03;;;;;;;4.90;4.45;;;14.30;44.10;;;;;;4999340;28;20201;-65
2022/12/13 09:16:35;;;;;;;6.32;5.30;;;14.30;43.80;;;;;;4999660;28;20200;-65
2022/12/13 09:19:02;;;;;;;6.45;5.68;;;14.30;43.50;;;;;;4999604;28;20216;-65
2022/12/13 09:21:29;;;;;;;6.32;5.25;;;14.40;43.50;;;;;;4998842;28;20209;-65
2022/12/13 09:23:57;;;;;;;5.28;4.78;;;14.30;43.50;;;;;;5016685;28;20251;-64
2022/12/13 09:26:24;;;;;;;6.55;5.85;;;14.40;43.70;;;;;;4999212;28;20571;-64
2022/12/13 09:28:51;;;;;;;5.72;5.10;;;14.40;43.10;;;;;;5016434;28;20217;-64
2022/12/13 09:31:19;;;;;;;7.60;5.68;;;14.40;43.50;;;;;;4999051;28;20193;-64
2022/12/13 09:33:47;;;;;;;6.65;5.95;;;14.50;43.30;;;;;;4998754;28;20200;-64
2022/12/13 09:36:16;;;;;;;6.60;5.90;;;14.50;43.10;;;;;;4999350;28;20670;-64
2022/12/13 09:38:43;;;;;;;6.07;5.47;;;14.50;43.00;;;;;;4998902;28;20224;-64
2022/12/13 09:41:15;;;;;;;5.55;4.95;;;14.50;43.20;;;;;;4999281;28;20226;-64
2022/12/13 09:43:43;;;;;;;5.90;5.30;;;14.60;43.50;;;;;;5016169;28;20380;-66
2022/12/13 09:46:28;;;;;;;5.88;5.15;;;14.60;42.90;;;;;;4999478;28;20204;-65
2022/12/13 09:48:57;;;;;;;6.75;5.35;;;14.70;43.10;;;;;;4998687;28;20224;-65
2022/12/13 09:51:26;;;;;;;4.88;4.35;;;14.70;42.50;;;;;;4999645;28;20189;-65
2022/12/13 09:53:53;;;;;;;5.60;5.00;;;14.70;42.60;;;;;;4998858;28;20299;-65
2022/12/13 09:56:21;;;;;;;4.97;4.35;;;14.80;42.90;;;;;;4999013;28;20200;-65
2022/12/13 09:58:48;;;;;;;5.20;4.38;;;14.80;42.60;;;;;;4998747;28;20225;-65
2022/12/13 10:01:15;;;;;;;5.68;5.07;;;14.90;42.50;;;;;;4999207;28;20221;-65
2022/12/13 10:03:45;;;;;;;5.30;4.70;;;14.90;42.70;;;;;;5017220;28;20197;-65
2022/12/13 10:06:14;;;;;;;4.88;4.40;;;14.90;42.70;;;;;;5016613;28;20218;-66
2022/12/13 10:08:42;;;;;;;6.63;5.55;;;15.00;43.10;;;;;;5017241;28;20213;-65
2022/12/13 10:11:13;;;;;;;5.95;5.35;;;15.00;42.50;;;;;;4998860;28;20262;-65
2022/12/13 10:13:41;;;;;;;5.43;4.88;;;15.00;42.20;;;;;;4998634;28;20203;-65
2022/12/13 10:16:11;;;;;;;6.05;5.00;;;15.00;42.10;;;;;;5016459;28;20713;-66
2022/12/13 10:18:40;;;;;;;6.28;5.68;;;15.00;42.10;;;;;;4999277;28;20266;-65
2022/12/13 10:21:10;;;;;;;5.47;4.88;;;15.00;42.20;;;;;;4998982;28;20219;-65
2022/12/13 10:23:38;;;;;;;5.72;4.97;;;15.00;41.90;;;;;;4998320;28;20670;-65
2022/12/13 10:26:08;;;;;;;5.78;5.10;;;15.00;42.20;;;;;;5016740;28;20193;-65
2022/12/13 10:28:35;;;;;;;5.13;4.53;;;15.00;41.80;;;;;;4999691;28;20216;-65
2022/12/13 10:31:04;;;;;;;5.53;4.90;;;15.00;42.00;;;;;;5017131;28;20267;-64
2022/12/13 10:33:32;;;;;;;4.75;4.05;;;15.00;41.50;;;;;;4999544;28;20197;-65
2022/12/13 10:36:14;;;;;;;4.93;4.43;;;15.10;42.50;;;;;;5003454;28;20207;-65
2022/12/13 10:38:44;;;;;;;5.18;4.68;;;15.10;41.90;;;;;;5011401;28;20317;-65
2022/12/13 10:41:27;;;;;;;5.43;4.93;;;15.10;41.90;;;;;;5005201;28;20232;-65
2022/12/13 10:44:21;;;;;;;5.53;4.43;;;15.10;41.70;;;;;;5018788;28;20225;-65
2022/12/13 10:46:51;;;;;;;4.90;4.40;;;15.10;42.40;;;;;;5000470;28;20193;-64
2022/12/13 10:49:19;;;;;;;5.55;4.20;;;15.20;42.00;;;;;;5000056;28;20221;-65
2022/12/13 10:51:46;;;;;;;4.55;4.10;;;15.20;41.70;;;;;;4999325;28;20201;-65
2022/12/13 10:54:17;;;;;;;5.78;4.70;;;15.30;42.00;;;;;;5000177;28;20228;-65
2022/12/13 10:56:45;;;;;;;4.43;4.03;;;15.30;41.20;;;;;;5000001;28;20566;-65
2022/12/13 10:59:24;;;;;;;4.55;4.15;;;15.30;41.40;;;;;;5001922;28;20296;-65
2022/12/13 11:01:51;;;;;;;5.20;4.63;;;15.40;41.70;;;;;;5005853;28;20204;-65
2022/12/13 11:04:21;;;;;;;4.40;4.00;;;15.40;41.50;;;;;;5018021;28;20193;-65
2022/12/13 11:06:48;;;;;;;4.55;4.15;;;15.40;41.60;;;;;;5015307;28;20208;-65
2022/12/13 11:09:21;;;;;;;4.28;3.88;;;15.40;41.20;;;;;;4997254;28;20223;-65
2022/12/13 11:11:48;;;;;;;5.30;4.63;;;15.50;41.00;;;;;;4997354;28;20224;-65
2022/12/13 11:14:17;;;;;;;4.95;4.45;;;15.50;41.20;;;;;;4996943;28;20261;-65
2022/12/13 11:16:45;;;;;;;4.95;4.10;;;15.50;41.60;;;;;;4996907;28;20220;-65
2022/12/13 11:19:16;;;;;;;5.32;4.20;;;15.60;40.90;;;;;;4997070;28;20584;-65
2022/12/13 11:21:46;;;;;;;5.10;4.05;;;15.60;40.80;;;;;;4997545;28;20213;-65
2022/12/13 11:24:18;;;;;;;4.75;4.22;;;15.60;41.30;;;;;;4996887;28;20203;-65
2022/12/13 11:26:46;;;;;;;5.07;4.40;;;15.60;41.20;;;;;;4998069;28;20210;-65
2022/12/13 11:29:23;;;;;;;5.22;4.72;;;15.60;41.20;;;;;;5014373;28;20223;-65
2022/12/13 11:31:56;;;;;;;5.13;4.63;;;15.60;40.40;;;;;;4996732;28;20647;-65
2022/12/13 11:34:27;;;;;;;4.10;3.70;;;15.60;40.90;;;;;;4996678;28;20213;-65
2022/12/13 11:36:58;;;;;;;4.40;4.00;;;15.70;40.80;;;;;;4997362;28;20237;-65
2022/12/13 11:39:29;;;;;;;5.30;4.30;;;15.70;40.10;;;;;;4996586;28;20225;-65
2022/12/13 11:41:59;;;;;;;4.60;4.20;;;15.70;41.10;;;;;;4996314;28;20216;-65
2022/12/13 11:44:29;;;;;;;4.95;4.22;;;15.70;40.90;;;;;;5014022;28;20324;-65
2022/12/13 11:46:58;;;;;;;3.72;3.33;;;15.70;40.70;;;;;;4996564;28;20189;-65
2022/12/13 11:49:32;;;;;;;4.93;4.43;;;15.80;41.70;;;;;;4996126;28;20220;-65
2022/12/13 11:52:01;;;;;;;4.70;4.18;;;15.80;40.80;;;;;;4996842;28;20193;-65
2022/12/13 11:54:34;;;;;;;5.05;4.40;;;15.80;40.60;;;;;;4996164;28;20366;-65
2022/12/13 11:57:03;;;;;;;4.75;4.35;;;15.80;40.40;;;;;;4996256;28;20705;-65
2022/12/13 11:59:33;;;;;;;4.18;3.78;;;15.80;40.90;;;;;;4996406;28;20224;-66
2022/12/13 12:02:04;;;;;;;4.63;4.22;;;15.90;41.00;;;;;;4995937;28;20221;-65
2022/12/13 12:04:34;;;;;;;4.20;3.78;;;15.90;41.10;;;;;;5000084;28;20207;-65
2022/12/13 12:07:05;;;;;;;4.45;4.03;;;15.90;40.70;;;;;;5000287;28;20664;-65
2022/12/13 12:09:35;;;;;;;3.95;3.55;;;15.90;40.60;;;;;;5017763;28;20180;-65
2022/12/13 12:12:06;;;;;;;4.25;3.85;;;15.90;40.90;;;;;;5000218;28;20189;-65
2022/12/13 12:14:37;;;;;;;4.05;3.42;;;15.90;40.70;;;;;;5000114;28;20212;-65
2022/12/13 12:17:05;;;;;;;4.75;4.28;;;15.90;41.10;;;;;;5000245;28;20323;-65
2022/12/13 12:19:35;;;;;;;6.35;3.83;;;15.90;40.70;;;;;;5016216;28;20618;-65
2022/12/13 12:22:13;;;;;;;4.88;4.03;;;15.90;40.80;;;;;;4999995;28;20303;-66
2022/12/13 12:24:52;;;;;;;3.97;3.63;;;15.90;40.80;;;;;;5017591;28;20580;-66
2022/12/13 12:27:24;;;;;;;3.75;3.42;;;15.90;40.40;;;;;;5017702;28;20181;-66
2022/12/13 12:30:14;;;;;;;3.88;3.47;;;15.90;40.90;;;;;;5000278;28;20251;-65
2022/12/13 12:32:49;;;;;;;3.90;3.50;;;15.90;41.10;;;;;;4999639;28;20251;-65
2022/12/13 12:35:46;;;;;;;3.65;3.35;;;15.90;41.30;;;;;;4999605;28;20585;-65
2022/12/13 12:38:24;;;;;;;4.85;4.40;;;16.00;40.90;;;;;;4999569;28;20628;-65
2022/12/13 12:41:15;;;;;;;4.07;3.67;;;15.90;40.60;;;;;;4999380;28;20266;-65
2022/12/13 12:43:42;;;;;;;4.05;3.75;;;16.00;40.80;;;;;;4999329;28;20651;-65
2022/12/13 12:46:18;;;;;;;4.93;4.10;;;16.00;40.40;;;;;;4999556;28;20193;-65
2022/12/13 12:49:02;;;;;;;4.80;4.00;;;16.00;40.40;;;;;;4999459;28;20217;-65
2022/12/13 12:51:31;;;;;;;5.82;4.85;;;16.00;40.60;;;;;;5000382;28;20193;-65
2022/12/13 12:54:11;;;;;;;5.00;4.50;;;15.90;40.60;;;;;;4999577;28;20223;-65
2022/12/13 12:56:42;;;;;;;4.90;4.10;;;16.00;40.30;;;;;;5000157;28;20196;-68
2022/12/13 12:59:12;;;;;;;4.32;3.85;;;16.00;39.90;;;;;;4999583;28;20231;-66
2022/12/13 13:01:50;;;;;;;3.60;3.30;;;16.00;39.80;;;;;;5016865;28;20284;-66
2022/12/13 13:04:18;;;;;;;4.10;3.70;;;16.00;40.70;;;;;;4999339;28;20195;-66